Windsor, OH (44099)

3:22 PM EST on February 08, 2016 (GMT -0500)
The Grove | | Change Station
CLOSE
Current Station
Personal Weather Station
Location: Montville, OH
Elevation: 1102 ft
Nearby Weather Stations

Elev 1102 ft 41.59 °N, 81.00 °W | Updated 5 minutes ago

Rain
Rain
33.6 °F
Feels Like 34 °F
N
0.0
Wind Variable Wind from SSE

Today
High -- | Low -- °F
--% Chance of Precip.
Yesterday
High -- | Low -- °F
Precip. -- in
Pressure 29.54 in
Visibility 10.0 miles
Clouds Mostly Cloudy 1000 ft
Overcast 2500 ft
Windchill 34 °F
Dew Point 31 °F
Humidity 90%
Rainfall 0.04 in
Snow Depth Not available.
7:28 AM 5:48 PM
New Moon, 0% visible
SPECI KHZY 082014Z AUTO 21005KT 10SM UP BKN010 OVC025 03/01 A2954 RMK AO2 P0000 T00280011 TSNO
Pressure 29.54 in
Visibility 10.0 miles
Clouds Mostly Cloudy 1000 ft
Overcast 2500 ft
Windchill 34 °F
Dew Point 31 °F
Humidity 90%
Rainfall 0.04 in
Snow Depth Not available.
7:28 AM 5:48 PM
New Moon, 0% visible
SPECI KHZY 082014Z AUTO 21005KT 10SM UP BKN010 OVC025 03/01 A2954 RMK AO2 P0000 T00280011 TSNO

10-Day Weather Forecast

Almanac

Astronomy

Feb. 08, 2016 Rise Set
Actual Time
Civil Twilight
Nautical Twilight
Astronomical Twilight
Moon
Length of Visible Light
Length of Day
Tomorrow will be .
, % of the Moon is Illuminated

Today's Extremes

State Highs State Lows

Community

WunderPhotos

Upload Photos

1,891,503 photos uploaded!

WunderBlog® & News

Nearby

Air Quality

  Air Quality AQ Index Pollutant
Not available.

Snow Depth

Station Depth Elevation

Earthquake Activity

City Distance Mag. Time & Date
Minimum magnitude displayed is 2.5.

Coastal Water Temperatures

Place Temperature

Stations

Nearby Weather Stations

Station Location Temp. Windchill Dew Point Humidity Wind Precip. Elev Updated Type
                   

Watches & Warnings

There are currently no watches in effect.